Time,TemperatureF,DewpointF,PressureIn,WindDirection,WindDirectionDegrees,WindSpeedMPH,WindSpeedGustMPH,Humidity,HourlyPrecipIn,Conditions,Clouds,dailyrainin,SolarRadiationWatts/m^2,SoftwareType,DateUTC
2013-11-10 00:00:00,40.6,32.7,29.85,SSW,208,0.0,0.0,73,0.00,CLR,OVC,0.00,0.0,WeatherDisplay:10.37,2013-11-09 23:00:00,
2013-11-10 00:10:00,40.3,32.3,29.85,South,189,0.0,0.0,73,0.00,CLR,OVC,0.00,0.0,WeatherDisplay:10.37,2013-11-09 23:10:00,
2013-11-10 00:20:00,40.3,32.3,29.85,WSW,237,0.0,0.0,73,0.00,CLR,OVC,0.00,0.0,WeatherDisplay:10.37,2013-11-09 23:20:00,
2013-11-10 00:30:00,40.1,32.1,29.85,SW,234,0.0,0.0,73,0.00,CLR,OVC,0.00,0.0,WeatherDisplay:10.37,2013-11-09 23:30:00,
2013-11-10 00:40:00,39.7,31.8,29.85,WSW,243,0.0,0.0,73,0.00,CLR,OVC,0.00,0.0,WeatherDisplay:10.37,2013-11-09 23:40:00,
2013-11-10 03:30:00,39.2,31.6,29.77,SSW,213,0.0,0.0,74,0.00,CLR,OVC,0.00,0.0,WeatherDisplay:10.37,2013-11-10 02:30:00,
2013-11-10 03:40:00,39.2,31.6,29.77,SW,215,0.0,0.0,74,0.00,CLR,OVC,0.00,0.0,WeatherDisplay:10.37,2013-11-10 02:40:00,
2013-11-10 03:50:00,39.0,31.8,29.77,SW,216,0.0,0.0,75,0.00,CLR,OVC,0.00,0.0,WeatherDisplay:10.37,2013-11-10 02:50:00,
2013-11-10 04:00:00,38.8,31.6,29.77,SSW,195,0.0,0.0,75,0.00,CLR,OVC,0.00,0.0,WeatherDisplay:10.37,2013-11-10 03:00:00,
2013-11-10 04:10:00,39.0,31.8,29.77,SW,215,0.0,0.0,75,0.00,CLR,OVC,0.00,0.0,WeatherDisplay:10.37,2013-11-10 03:10:00,
2013-11-10 04:20:00,39.6,32.3,29.74,SSW,193,0.0,0.0,75,0.00,CLR,OVC,0.00,0.0,WeatherDisplay:10.37,2013-11-10 03:20:00,
2013-11-10 04:30:00,39.4,31.8,29.74,SSW,205,0.0,0.0,74,0.00,CLR,OVC,0.00,0.0,WeatherDisplay:10.37,2013-11-10 03:30:00,
2013-11-10 04:40:00,39.6,32.0,29.77,SSW,202,0.0,0.0,74,0.00,CLR,OVC,0.00,0.0,WeatherDisplay:10.37,2013-11-10 03:40:00,
2013-11-10 04:50:00,39.7,32.1,29.77,South,186,0.0,0.0,74,0.00,CLR,OVC,0.00,0.0,WeatherDisplay:10.37,2013-11-10 03:50:00,
2013-11-10 05:00:00,39.7,32.1,29.77,SSW,201,0.0,0.0,74,0.00,CLR,OVC,0.00,0.0,WeatherDisplay:10.37,2013-11-10 04:00:00,
2013-11-10 05:20:00,39.9,32.0,29.74,SW,223,1.0,1.0,73,0.00,CLR,OVC,0.00,0.0,WeatherDisplay:10.37,2013-11-10 04:20:00,
2013-11-10 05:30:00,40.1,32.1,29.74,WSW,247,1.0,1.0,73,0.00,CLR,OVC,0.00,0.0,WeatherDisplay:10.37,2013-11-10 04:30:00,
2013-11-10 05:40:00,40.1,32.1,29.74,WSW,244,0.0,1.0,73,0.00,CLR,OVC,0.00,0.0,WeatherDisplay:10.37,2013-11-10 04:40:00,
2013-11-10 05:50:00,40.1,32.1,29.74,SW,216,0.0,0.0,73,0.00,CLR,OVC,0.00,0.0,WeatherDisplay:10.37,2013-11-10 04:50:00,
2013-11-10 06:00:00,40.1,32.1,29.74,SSW,210,2.0,3.0,73,0.00,CLR,OVC,0.00,0.0,WeatherDisplay:10.37,2013-11-10 05:00:00,
2013-11-10 06:10:00,39.9,32.0,29.74,SW,215,3.0,4.0,73,0.00,CLR,OVC,0.00,0.0,WeatherDisplay:10.37,2013-11-10 05:10:00,
2013-11-10 06:20:00,39.9,32.0,29.74,SSW,209,3.0,4.0,73,0.00,CLR,OVC,0.00,0.0,WeatherDisplay:10.37,2013-11-10 05:20:00,
2013-11-10 06:30:00,39.9,32.0,29.74,SW,235,5.0,5.0,73,0.00,CLR,OVC,0.00,0.0,WeatherDisplay:10.37,2013-11-10 05:30:00,
2013-11-10 06:40:00,39.9,32.0,29.71,SW,215,5.0,5.0,73,0.00,CLR,OVC,0.00,0.0,WeatherDisplay:10.37,2013-11-10 05:40:00,
2013-11-10 06:50:00,39.9,32.0,29.71,SSW,212,5.0,5.0,73,0.00,CLR,OVC,0.00,0.0,WeatherDisplay:10.37,2013-11-10 05:50:00,
2013-11-10 07:00:00,39.9,32.0,29.71,SW,225,2.0,5.0,73,0.00,OVC,OVC,0.00,0.0,WeatherDisplay:10.37,2013-11-10 06:00:00,
2013-11-10 07:10:00,39.9,32.0,29.71,SW,227,3.0,4.0,73,0.00,OVC,OVC,0.00,0.0,WeatherDisplay:10.37,2013-11-10 06:10:00,
2013-11-10 07:20:00,40.1,31.8,29.71,WSW,242,3.0,4.0,72,0.00,OVC,OVC,0.00,0.0,WeatherDisplay:10.37,2013-11-10 06:20:00,
2013-11-10 07:30:00,40.1,31.8,29.71,WSW,252,5.0,5.0,72,0.00,OVC,OVC,0.00,0.0,WeatherDisplay:10.37,2013-11-10 06:30:00,
2013-11-10 07:40:00,39.9,31.6,29.71,SW,223,5.0,5.0,72,0.00,OVC,OVC,0.00,0.0,WeatherDisplay:10.37,2013-11-10 06:40:00,
2013-11-10 07:50:00,40.3,32.0,29.71,SSW,200,3.0,5.0,72,0.00,OVC,OVC,0.00,0.0,WeatherDisplay:10.37,2013-11-10 06:50:00,
2013-11-10 08:00:00,40.3,32.0,29.71,SSW,193,5.0,5.0,72,0.00,OVC,OVC,0.00,0.0,WeatherDisplay:10.37,2013-11-10 07:00:00,
2013-11-10 08:10:00,40.3,32.0,29.71,SSW,210,5.0,5.0,72,0.00,OVC,OVC,0.00,0.0,WeatherDisplay:10.37,2013-11-10 07:10:00,
2013-11-10 08:20:00,40.5,31.8,29.71,SSW,207,3.0,8.0,71,0.00,OVC,OVC,0.00,0.0,WeatherDisplay:10.37,2013-11-10 07:20:00,
2013-11-10 08:30:00,40.6,32.0,29.71,SSW,205,6.0,6.0,71,0.00,OVC,OVC,0.00,0.0,WeatherDisplay:10.37,2013-11-10 07:30:00,
2013-11-10 08:40:00,40.8,32.1,29.68,South,185,5.0,6.0,71,0.00,OVC,OVC,0.00,0.0,WeatherDisplay:10.37,2013-11-10 07:40:00,
2013-11-10 08:50:00,41.2,32.5,29.68,SSW,194,5.0,5.0,71,0.00,OVC,OVC,0.00,0.0,WeatherDisplay:10.37,2013-11-10 07:50:00,
2013-11-10 09:00:00,41.4,32.3,29.68,SSW,213,5.0,5.0,70,0.00,OVC,OVC,0.00,0.0,WeatherDisplay:10.37,2013-11-10 08:00:00,
2013-11-10 09:10:00,41.7,32.7,29.68,SSW,205,6.0,6.0,70,0.00,OVC,OVC,0.00,0.0,WeatherDisplay:10.37,2013-11-10 08:10:00,
2013-11-10 09:20:00,43.0,33.9,29.68,SW,226,3.0,6.0,70,0.00,OVC,OVC,0.00,0.0,WeatherDisplay:10.37,2013-11-10 08:20:00,
2013-11-10 09:30:00,43.9,34.4,29.68,SW,215,6.0,6.0,69,0.00,OVC,OVC,0.00,0.0,WeatherDisplay:10.37,2013-11-10 08:30:00,
2013-11-10 09:40:00,44.2,34.0,29.68,SW,228,5.0,6.0,67,0.00,OVC,OVC,0.00,0.0,WeatherDisplay:10.37,2013-11-10 08:40:00,
2013-11-10 09:50:00,45.9,35.1,29.68,WSW,246,6.0,6.0,66,0.00,OVC,OVC,0.00,0.0,WeatherDisplay:10.37,2013-11-10 08:50:00,
2013-11-10 10:00:00,46.0,35.3,29.68,WSW,241,5.0,6.0,66,0.00,OVC,OVC,0.00,0.0,WeatherDisplay:10.37,2013-11-10 09:00:00,
2013-11-10 10:10:00,46.8,36.0,29.68,West,277,6.0,6.0,66,0.00,OVC,OVC,0.00,0.0,WeatherDisplay:10.37,2013-11-10 09:10:00,
2013-11-10 10:20:00,46.8,35.6,29.68,WNW,290,3.0,6.0,65,0.00,OVC,OVC,0.00,0.0,WeatherDisplay:10.37,2013-11-10 09:20:00,
2013-11-10 10:30:00,47.1,36.3,29.68,WNW,290,3.0,4.0,66,0.00,OVC,OVC,0.00,0.0,WeatherDisplay:10.37,2013-11-10 09:30:00,
2013-11-10 10:40:00,47.8,36.6,29.68,WNW,303,3.0,3.0,65,0.00,OVC,OVC,0.00,0.0,WeatherDisplay:10.37,2013-11-10 09:40:00,
2013-11-10 10:50:00,48.6,37.3,29.68,WSW,257,5.0,5.0,65,0.00,OVC,OVC,0.00,0.0,WeatherDisplay:10.37,2013-11-10 09:50:00,
2013-11-10 11:00:00,48.4,36.8,29.68,WSW,248,6.0,6.0,64,0.00,OVC,OVC,0.00,0.0,WeatherDisplay:10.37,2013-11-10 10:00:00,
2013-11-10 11:10:00,48.4,36.8,29.68,SW,231,1.0,3.0,64,0.00,FEW,OVC,0.00,0.0,WeatherDisplay:10.37,2013-11-10 10:10:00,
2013-11-10 11:20:00,49.5,37.4,29.65,SW,224,5.0,5.0,63,0.00,FEW,OVC,0.00,0.0,WeatherDisplay:10.37,2013-11-10 10:20:00,
2013-11-10 11:30:00,49.8,37.7,29.65,SW,226,2.0,5.0,63,0.00,FEW,OVC,0.00,0.0,WeatherDisplay:10.37,2013-11-10 10:30:00,
2013-11-10 11:40:00,50.4,37.8,29.65,West,268,5.0,5.0,62,0.00,FEW,OVC,0.00,0.0,WeatherDisplay:10.37,2013-11-10 10:40:00,
2013-11-10 11:50:00,49.1,36.6,29.65,SW,234,2.0,5.0,62,0.00,FEW,OVC,0.00,0.0,WeatherDisplay:10.37,2013-11-10 10:50:00,
2013-11-10 12:00:00,48.0,36.0,29.65,SSW,206,0.0,2.0,63,0.00,FEW,OVC,0.00,0.0,WeatherDisplay:10.37,2013-11-10 11:00:00,
2013-11-10 12:10:00,48.6,36.5,29.65,SW,226,5.0,5.0,63,0.00,SCT,OVC,0.00,0.0,WeatherDisplay:10.37,2013-11-10 11:10:00,
2013-11-10 12:20:00,48.2,36.2,29.65,SSW,192,0.0,5.0,63,0.00,SCT,OVC,0.00,0.0,WeatherDisplay:10.37,2013-11-10 11:20:00,
2013-11-10 12:30:00,48.2,36.6,29.65,South,179,0.0,0.0,64,0.00,SCT,OVC,0.00,0.0,WeatherDisplay:10.37,2013-11-10 11:30:00,
2013-11-10 12:40:00,47.5,35.9,29.65,South,181,0.0,1.0,64,0.00,SCT,OVC,0.00,0.0,WeatherDisplay:10.37,2013-11-10 11:40:00,
2013-11-10 12:50:00,47.5,35.9,29.65,SW,227,0.0,0.0,64,0.00,SCT,OVC,0.00,0.0,WeatherDisplay:10.37,2013-11-10 11:50:00,
2013-11-10 13:00:00,47.3,35.7,29.65,SW,223,0.0,0.0,64,0.00,SCT,OVC,0.00,0.0,WeatherDisplay:10.37,2013-11-10 12:00:00,
2013-11-10 13:10:00,47.3,35.7,29.65,SW,226,0.0,2.0,64,0.00,-RA,OVC,0.00,0.0,WeatherDisplay:10.37,2013-11-10 12:10:00,
2013-11-10 13:20:00,47.5,36.3,29.65,SW,225,0.0,0.0,65,0.00,-RA,OVC,0.00,0.0,WeatherDisplay:10.37,2013-11-10 12:20:00,
2013-11-10 13:30:00,47.7,36.1,29.65,SW,216,0.0,0.0,64,0.00,-RA,OVC,0.00,0.0,WeatherDisplay:10.37,2013-11-10 12:30:00,
2013-11-10 13:40:00,47.3,36.1,29.65,SSW,202,0.0,0.0,65,0.00,-RA,OVC,0.00,0.0,WeatherDisplay:10.37,2013-11-10 12:40:00,
2013-11-10 13:50:00,46.9,36.2,29.65,SSE,167,0.0,0.0,66,0.00,-RA,OVC,0.00,0.0,WeatherDisplay:10.37,2013-11-10 12:50:00,
2013-11-10 14:00:00,46.8,36.0,29.65,South,170,0.0,0.0,66,0.00,-RA,OVC,0.00,0.0,WeatherDisplay:10.37,2013-11-10 13:00:00,
2013-11-10 14:10:00,46.8,36.4,29.65,South,169,0.0,0.0,67,0.00,-RA,OVC,0.00,0.0,WeatherDisplay:10.37,2013-11-10 13:10:00,
2013-11-10 14:20:00,46.2,36.6,29.65,SW,214,0.0,0.0,69,0.00,-RA,OVC,0.00,0.0,WeatherDisplay:10.37,2013-11-10 13:20:00,
2013-11-10 14:30:00,46.2,36.6,29.65,SW,218,0.0,0.0,69,0.00,-RA,OVC,0.00,0.0,WeatherDisplay:10.37,2013-11-10 13:30:00,
2013-11-10 14:40:00,45.9,36.6,29.65,South,184,0.0,0.0,70,0.01,-RA,OVC,0.01,0.0,WeatherDisplay:10.37,2013-11-10 13:40:00,
2013-11-10 14:50:00,45.3,36.5,29.65,NNE,29,0.0,0.0,71,0.00,-RA,OVC,0.01,0.0,WeatherDisplay:10.37,2013-11-10 13:50:00,
2013-11-10 15:00:00,45.1,36.6,29.65,North,355,0.0,0.0,72,0.00,-RA,OVC,0.01,0.0,WeatherDisplay:10.37,2013-11-10 14:00:00,
2013-11-10 15:10:00,44.8,36.7,29.68,North,3,0.0,0.0,73,0.00,-RA,OVC,0.01,0.0,WeatherDisplay:10.37,2013-11-10 14:10:00,
2013-11-10 15:20:00,44.2,36.8,29.68,North,354,0.0,1.0,75,0.00,-RA,OVC,0.02,0.0,WeatherDisplay:10.37,2013-11-10 14:20:00,
2013-11-10 15:30:00,43.9,36.5,29.68,NNW,345,3.0,3.0,75,0.00,-RA,OVC,0.02,0.0,WeatherDisplay:10.37,2013-11-10 14:30:00,
2013-11-10 15:40:00,43.2,36.1,29.68,North,0,1.0,3.0,76,0.00,-RA,OVC,0.03,0.0,WeatherDisplay:10.37,2013-11-10 14:40:00,
2013-11-10 15:50:00,42.8,36.1,29.68,NNW,327,0.0,6.0,77,0.01,-RA,OVC,0.06,0.0,WeatherDisplay:10.37,2013-11-10 14:50:00,
2013-11-10 16:00:00,42.6,35.9,29.68,NNW,341,0.0,0.0,77,0.00,-RA,OVC,0.06,0.0,WeatherDisplay:10.37,2013-11-10 15:00:00,
2013-11-10 16:10:00,42.3,35.6,29.71,WSW,243,0.0,0.0,77,0.01,-RA,OVC,0.07,0.0,WeatherDisplay:10.37,2013-11-10 15:10:00,
2013-11-10 16:20:00,41.9,35.5,29.71,SSW,205,0.0,0.0,78,0.01,-RA,OVC,0.08,0.0,WeatherDisplay:10.37,2013-11-10 15:20:00,
2013-11-10 16:30:00,41.9,35.5,29.71,SSW,205,0.0,0.0,78,0.00,-RA,OVC,0.08,0.0,WeatherDisplay:10.37,2013-11-10 15:30:00,
2013-11-10 16:40:00,41.7,35.4,29.71,North,9,2.0,3.0,78,0.01,-RA,OVC,0.09,0.0,WeatherDisplay:10.37,2013-11-10 15:40:00,
2013-11-10 16:50:00,41.5,35.2,29.71,North,6,2.0,2.0,78,0.00,-RA,OVC,0.09,0.0,WeatherDisplay:10.37,2013-11-10 15:50:00,
2013-11-10 17:00:00,41.5,35.2,29.71,North,9,0.0,2.0,78,0.00,-RA,OVC,0.09,0.0,WeatherDisplay:10.37,2013-11-10 16:00:00,
2013-11-10 17:10:00,41.5,35.5,29.71,NNW,346,0.0,0.0,79,0.00,-RA,OVC,0.09,0.0,WeatherDisplay:10.37,2013-11-10 16:10:00,
2013-11-10 17:20:00,41.5,35.5,29.71,NNW,347,2.0,2.0,79,0.00,-RA,OVC,0.09,0.0,WeatherDisplay:10.37,2013-11-10 16:20:00,
2013-11-10 17:30:00,41.5,35.5,29.71,North,9,2.0,3.0,79,0.01,-RA,OVC,0.10,0.0,WeatherDisplay:10.37,2013-11-10 16:30:00,
2013-11-10 17:40:00,41.5,35.5,29.74,NNW,345,3.0,4.0,79,0.00,-RA,OVC,0.10,0.0,WeatherDisplay:10.37,2013-11-10 16:40:00,
2013-11-10 17:50:00,41.4,35.3,29.74,NNE,24,0.0,3.0,79,0.00,-RA,OVC,0.10,0.0,WeatherDisplay:10.37,2013-11-10 16:50:00,
2013-11-10 18:00:00,41.4,35.3,29.74,NNE,15,3.0,3.0,79,0.00,-RA,OVC,0.10,0.0,WeatherDisplay:10.37,2013-11-10 17:00:00,
2013-11-10 18:10:00,41.5,35.5,29.77,North,3,1.0,1.0,79,0.00,-RA,OVC,0.10,0.0,WeatherDisplay:10.37,2013-11-10 17:10:00,
2013-11-10 18:20:00,41.2,35.2,29.77,NNE,16,5.0,5.0,79,0.01,-RA,OVC,0.12,0.0,WeatherDisplay:10.37,2013-11-10 17:20:00,
2013-11-10 18:30:00,41.4,35.3,29.77,North,3,6.0,6.0,79,0.00,-RA,OVC,0.12,0.0,WeatherDisplay:10.37,2013-11-10 17:30:00,
2013-11-10 18:40:00,41.4,35.3,29.77,North,1,5.0,6.0,79,0.01,-RA,OVC,0.14,0.0,WeatherDisplay:10.37,2013-11-10 17:40:00,
2013-11-10 18:50:00,41.2,35.2,29.80,North,7,3.0,7.0,79,0.00,-RA,OVC,0.15,0.0,WeatherDisplay:10.37,2013-11-10 17:50:00,
2013-11-10 19:00:00,41.2,35.2,29.80,North,357,6.0,6.0,79,0.02,-RA,OVC,0.17,0.0,WeatherDisplay:10.37,2013-11-10 18:00:00,
2013-11-10 19:10:00,41.2,35.2,29.80,North,351,3.0,6.0,79,0.02,-RA,OVC,0.20,0.0,WeatherDisplay:10.37,2013-11-10 18:10:00,
2013-11-10 22:20:00,37.9,32.3,29.94,NNW,348,1.0,3.0,80,0.02,-RA,OVC,0.20,0.0,WeatherDisplay:10.37,2013-11-10 21:20:00,
2013-11-10 22:30:00,37.8,32.1,29.94,NNE,17,5.0,5.0,80,0.00,OVC,OVC,0.20,0.0,WeatherDisplay:10.37,2013-11-10 21:30:00,
2013-11-10 22:50:00,37.8,32.1,29.97,North,2,2.0,7.0,80,0.00,-RA,OVC,0.20,0.0,WeatherDisplay:10.37,2013-11-10 21:50:00,
2013-11-10 23:00:00,37.8,32.1,29.97,NNE,19,1.0,2.0,80,0.00,-RA,OVC,0.20,0.0,WeatherDisplay:10.37,2013-11-10 22:00:00,
2013-11-10 23:10:00,37.8,32.1,29.97,North,6,3.0,3.0,80,0.00,BKN,OVC,0.20,0.0,WeatherDisplay:10.37,2013-11-10 22:10:00,
2013-11-10 23:20:00,37.9,32.0,29.97,North,358,0.0,4.0,79,0.00,BKN,OVC,0.20,0.0,WeatherDisplay:10.37,2013-11-10 22:20:00,
2013-11-10 23:30:00,37.9,32.0,29.97,NNE,15,0.0,0.0,79,0.00,BKN,OVC,0.20,0.0,WeatherDisplay:10.37,2013-11-10 22:30:00,
2013-11-10 23:40:00,37.8,31.8,30.00,North,1,0.0,0.0,79,0.00,BKN,OVC,0.20,0.0,WeatherDisplay:10.37,2013-11-10 22:40:00,
2013-11-10 23:50:00,37.8,31.8,30.00,North,357,0.0,1.0,79,0.00,BKN,OVC,0.20,0.0,WeatherDisplay:10.37,2013-11-10 22:50:00,